Nearby METAR Reports

 

KIAG - Niagara Falls, New York, USA
Distance from station: W 13mi, 20km
Updated: Thu, 25-Feb-2021 6:53pm EST
Clear
Clear
 Wind from SSW
Wind: SSW 12 mph , 19 km/h
Temperature: 28°F , -2°C
Wind Chill: 18°F , -8°C
Dew Point: 23°F , -5°C
Humidity: 80%
Barometer: 30.25 inHg , 1024.4 hPa
Clouds: Clear
Visibility: 10 miles , 16 km
2021/02/25 23:53 KIAG 252353Z 21010KT 10SM CLR M02/M05 A3025 RMK AO2 SLP259 T10221050 10006 21022 53008 $
KBUF - Buffalo/Cheektow, New York, USA
Distance from station: S 15mi, 24km
Updated: Thu, 25-Feb-2021 6:54pm EST
Few Clouds
Few Clouds
 Wind from SW
Wind: SW 10 mph , 17 km/h
Temperature: 28°F , -2°C
Wind Chill: 19°F , -7°C
Dew Point: 21°F , -6°C
Humidity: 74%
Barometer: 30.26 inHg , 1024.7 hPa
Clouds: Few Clouds
Visibility: 10 miles , 16 km
Cloud details: Few Clouds 4000 ft
2021/02/25 23:54 KBUF 252354Z 22009KT 10SM FEW040 M02/M06 A3026 RMK AO2 SLP256 4/006 T10171056 10000 21017 53008 $
 
CYSN - St. Catharines A, Ontario, Canada
Distance from station: W 24mi, 39km
Updated: Thu, 25-Feb-2021 7:00pm EST
Mostly cloudy
Mostly cloudy
 Wind from SW
Wind: SW 10 mph , 17 km/h
Temperature: 30°F , -1°C
Wind Chill: 21°F , -6°C
Dew Point: 21°F , -6°C
Humidity: 69%
Barometer: 30.26 inHg , 1024.7 hPa
Clouds: Mostly cloudy
Visibility: 15 miles , 24 km
Cloud details: Few Clouds 4000 ft
Mostly cloudy 6900 ft
2021/02/26 00:00 CYSN 260000Z 23009KT 15SM FEW040 BKN069 M01/M06 A3026 RMK SC2AC3 SLP253
CWWZ - Port Weller (mar, Ontario, Canada
Distance from station: WNW 28mi, 44km
Updated: Thu, 25-Feb-2021 7:00pm EST

 Wind from WSW
Wind: WSW 5 mph , 7 km/h
Temperature: 32°F , 0°C
Wind Chill: 27°F , -3°C
Dew Point: 25°F , -4°C
Humidity: 75%
2021/02/26 00:00 CWWZ 260000Z AUTO 24004KT M00/M04 RMK AO1 SLP256 T10031043 53008
 
CWPC - Port Colborne(Au, Ontario, Canada
Distance from station: SW 35mi, 56km
Updated: Fri, 26-Feb-2021 4:00pm EST

 Wind from WSW
Wind: WSW 20 mph , 31 km/h
Temperature: 30°F , -1°C
Wind Chill: 17°F , -8°C
Dew Point: 23°F , -5°C
Humidity: 75%
2021/02/26 21:00 CWPC 262100Z AUTO 25017KT M01/M05 RMK AO1 PK WND 25022/2010 SLP252 T10121052 57003
CXVN - Vineland (au8), Ontario, Canada
Distance from station: W 36mi, 58km
Updated: Thu, 25-Feb-2021 7:00pm EST

 Wind from WSW
Wind: WSW 6 mph , 9 km/h
Temperature: 32°F , 0°C
Wind Chill: 26°F , -3°C
Dew Point: 21°F , -6°C
Humidity: 64%
2021/02/26 00:00 CXVN 260000Z AUTO 24005KT M00/M06 RMK AO1 SLP252 T10041061 53009
 
CYTZ - Toronto Il Vor, Ontario, Canada
Distance from station: NW 49mi, 79km
Updated: Thu, 25-Feb-2021 7:00pm EST
Overcast
Overcast
 Wind from WSW
Wind: WSW 10 mph , 17 km/h
Temperature: 32°F , 0°C
Wind Chill: 24°F , -4°C
Dew Point: 19°F , -7°C
Humidity: 60%
Barometer: 30.23 inHg , 1023.7 hPa
Clouds: Overcast
Visibility: 9 miles , 14 km
Cloud details: Overcast 6000 ft
2021/02/26 00:00 CYTZ 260000Z AUTO 24009KT 9SM OVC060 00/M07 A3023 RMK SLP245
KROC - Rochester, New York, USA
Distance from station: E 51mi, 81km
Updated: Thu, 25-Feb-2021 6:54pm EST
Mostly cloudy
Mostly cloudy
 Wind from WSW
Wind: WSW 8 mph , 13 km/h
Temperature: 28°F , -2°C
Wind Chill: 20°F , -7°C
Dew Point: 19°F , -7°C
Humidity: 69%
Barometer: 30.26 inHg , 1024.7 hPa
Clouds: Mostly cloudy
Visibility: 10 miles , 16 km
Cloud details: Mostly cloudy 3700 ft
2021/02/25 23:54 KROC 252354Z 25007KT 10SM BKN037 M02/M07 A3026 RMK AO2 SLP255 4/006 T10171067 10017 21017 53014
 
CXTO - Toronto City, Ontario, Canada
Distance from station: NW 51mi, 82km
Updated: Thu, 25-Feb-2021 7:00pm EST

 
Temperature: 32°F , 0°C
Dew Point: 18°F , -8°C
Humidity: 55%
2021/02/26 00:00 CXTO 260000Z AUTO M00/M08 RMK AO1 SOG 08 3003 SLP241 T10021080
CYOO - Oshawa, Ontario, Canada
Distance from station: NNW 54mi, 87km
Updated: Thu, 25-Feb-2021 7:00pm EST
Mostly cloudy
Mostly cloudy
 Wind from NW
Wind: NW 2 mph , 4 km/h
Temperature: 28°F , -2°C
Dew Point: 14°F , -10°C
Humidity: 55%
Barometer: 30.23 inHg , 1023.7 hPa
Clouds: Mostly cloudy
Visibility: 9 miles , 14 km
Cloud details: Mostly cloudy 5500 ft
2021/02/26 00:00 CYOO 260000Z AUTO 31002KT 9SM BKN055 M02/M10 A3023 RMK SLP245
 
KDKK - Dunkirk, New York, USA
Distance from station: SW 54mi, 87km
Updated: Thu, 25-Feb-2021 6:53pm EST
Clear
Clear
 Wind from WSW
Wind: WSW 8 mph , 13 km/h
Temperature: 28°F , -2°C
Wind Chill: 20°F , -7°C
Dew Point: 21°F , -6°C
Humidity: 74%
Barometer: 30.28 inHg , 1025.4 hPa
Clouds: Clear
Visibility: 10 miles , 16 km
2021/02/25 23:53 KDKK 252353Z AUTO 24007KT 10SM CLR M02/M06 A3028 RMK AO2 SLP263 T10171056 11006 21017 53005
CWWB - Burlington Piers, Ontario, Canada
Distance from station: W 56mi, 91km
Updated: Thu, 25-Feb-2021 7:00pm EST

 Wind from SW
Wind: SW 3 mph , 6 km/h
Temperature: 32°F , 0°C
Dew Point: 19°F , -7°C
Humidity: 60%
2021/02/26 00:00 CWWB 260000Z AUTO 23003KT M00/M07 RMK AO1 SLP250 T10041067 53006
 
CYYZ - Toronto/Pearson, Ontario, Canada
Distance from station: NW 59mi, 95km
Updated: Thu, 25-Feb-2021 7:00pm EST
Mostly cloudy
Mostly cloudy
 Wind from W
Wind: W 9 mph , 15 km/h
Temperature: 30°F , -1°C
Wind Chill: 22°F , -6°C
Dew Point: 19°F , -7°C
Humidity: 64%
Barometer: 30.23 inHg , 1023.7 hPa
Clouds: Mostly cloudy
Visibility: 15 miles , 24 km
Cloud details: Mostly cloudy 6100 ft
2021/02/26 00:00 CYYZ 260000Z 26008KT 15SM BKN061 M01/M07 A3023 RMK SC6 SLP247
CWNC - Cobourg (mars), Ontario, Canada
Distance from station: NNE 61mi, 98km
Updated: Thu, 25-Feb-2021 7:00pm EST

 Wind from NW
Wind: NW 3 mph , 6 km/h
Temperature: 28°F , -2°C
Dew Point: 12°F , -11°C
Humidity: 51%
2021/02/26 00:00 CWNC 260000Z AUTO 32003KT M02/M11 RMK AO1 SOG 02 3005 SLP240 T10211109
 
CXHM - Hamilton Rbg Cs, Ontario, Canada
Distance from station: W 62mi, 100km
Updated: Thu, 25-Feb-2021 7:00pm EST

 Wind from WSW
Wind: WSW 2 mph , 4 km/h
Temperature: 32°F , 0°C
Dew Point: 18°F , -8°C
Humidity: 55%
2021/02/26 00:00 CXHM 260000Z AUTO 25002KT M00/M08 RMK AO1 SLP252 T10021075 53005
CYHM - Hamilton Airport, Ontario, Canada
Distance from station: W 63mi, 101km
Updated: Thu, 25-Feb-2021 7:00pm EST
Overcast
Overcast
 Wind from SW
Wind: SW 7 mph , 11 km/h
Temperature: 28°F , -2°C
Wind Chill: 21°F , -6°C
Dew Point: 19°F , -7°C
Humidity: 69%
Barometer: 30.24 inHg , 1024 hPa
Clouds: Overcast
Visibility: 15 miles , 24 km
Cloud details: Overcast 5800 ft
2021/02/26 00:00 CYHM 260000Z 22006KT 15SM OVC058 M02/M07 A3024 RMK SC8 SLP252
 
KDSV - Dansville, New York, USA
Distance from station: SE 63mi, 102km
Updated: Thu, 25-Feb-2021 6:54pm EST
Clear
Clear
 Wind from NW
Wind: NW 5 mph , 7 km/h
Temperature: 30°F , -1°C
Wind Chill: 25°F , -4°C
Dew Point: 18°F , -8°C
Humidity: 59%
Barometer: 30.25 inHg , 1024.4 hPa
Clouds: Clear
Visibility: 10 miles , 16 km
2021/02/25 23:54 KDSV 252354Z AUTO 31004KT 10SM CLR M01/M08 A3025 RMK AO2 SLP262 T10111078 10033 21011 53016
KOLE - Olean, New York, USA
Distance from station: SSE 65mi, 105km
Updated: Thu, 25-Feb-2021 7:35pm EST
Clear
Clear
 Wind from W
Wind: W 3 mph , 6 km/h
Temperature: 25°F , -4°C
Dew Point: 9°F , -13°C
Humidity: 50%
Barometer: 30.18 inHg , 1022 hPa
Clouds: Clear
Visibility: 10 miles , 16 km
2021/02/26 00:35 KOLE 260035Z AUTO 28003KT 10SM CLR M04/M13 A3018 RMK AO2